createdAt,value
2023-05-17T00:00:54.208Z,37.67
2023-05-17T00:01:54.200Z,37.70
2023-05-17T00:02:54.247Z,37.66
2023-05-17T00:03:54.172Z,37.71
2023-05-17T00:04:54.252Z,37.75
2023-05-17T00:05:54.160Z,37.71
2023-05-17T00:06:54.130Z,37.70
2023-05-17T00:07:54.121Z,37.73
2023-05-17T00:08:54.120Z,37.68
2023-05-17T00:09:54.103Z,37.68
2023-05-17T00:10:54.089Z,37.74
2023-05-17T00:11:54.162Z,37.74
2023-05-17T00:12:54.031Z,37.73
2023-05-17T00:13:54.065Z,37.75
2023-05-17T00:14:54.005Z,37.71
2023-05-17T00:15:53.989Z,37.75
2023-05-17T00:16:53.997Z,37.74
2023-05-17T00:17:54.047Z,37.72
2023-05-17T00:18:54.059Z,37.71
2023-05-17T00:19:53.967Z,37.75
2023-05-17T00:20:53.959Z,37.72
2023-05-17T00:21:53.951Z,37.76
2023-05-17T00:22:53.954Z,37.78
2023-05-17T00:23:53.967Z,37.76
2023-05-17T00:24:53.934Z,37.76
2023-05-17T00:25:53.921Z,37.81
2023-05-17T00:26:53.956Z,37.80
2023-05-17T00:27:54.042Z,37.73
2023-05-17T00:28:53.945Z,37.76
2023-05-17T00:29:53.941Z,37.77
2023-05-17T00:30:53.931Z,37.80
2023-05-17T00:31:53.929Z,37.76
2023-05-17T00:32:53.972Z,37.77
2023-05-17T00:33:53.891Z,37.75
2023-05-17T00:34:53.917Z,37.73
2023-05-17T00:35:53.900Z,37.73
2023-05-17T00:36:53.858Z,37.70
2023-05-17T00:37:53.850Z,37.73
2023-05-17T00:38:53.823Z,37.74
2023-05-17T00:39:53.817Z,37.70
2023-05-17T00:40:53.825Z,37.72
2023-05-17T00:41:53.829Z,37.73
2023-05-17T00:42:53.847Z,37.72
2023-05-17T00:43:54.095Z,37.69
2023-05-17T00:44:53.878Z,37.68
2023-05-17T00:45:53.780Z,37.69
2023-05-17T00:46:53.772Z,37.72
2023-05-17T00:47:53.832Z,37.65
2023-05-17T00:48:53.721Z,37.66
2023-05-17T00:49:53.720Z,37.68
2023-05-17T00:50:53.708Z,37.66
2023-05-17T00:51:53.664Z,37.65
2023-05-17T00:52:53.657Z,37.65
2023-05-17T00:53:53.638Z,37.65
2023-05-17T00:54:53.650Z,37.68
2023-05-17T00:55:53.615Z,37.70
2023-05-17T00:56:53.587Z,37.61
2023-05-17T00:57:53.577Z,37.59
2023-05-17T00:59:00.678Z,37.62
2023-05-17T00:59:53.567Z,37.55
2023-05-17T01:00:53.560Z,37.61
2023-05-17T01:01:53.521Z,37.59
2023-05-17T01:02:53.572Z,37.55
2023-05-17T01:03:53.700Z,37.63
2023-05-17T01:04:53.523Z,37.59
2023-05-17T01:05:53.455Z,37.59
2023-05-17T01:06:53.448Z,37.61
2023-05-17T01:07:53.419Z,37.57
2023-05-17T01:08:53.398Z,37.57
2023-05-17T01:09:53.382Z,37.55
2023-05-17T01:10:53.389Z,37.58
2023-05-17T01:11:53.345Z,37.59
2023-05-17T01:12:53.329Z,37.57
2023-05-17T01:13:53.313Z,37.56
2023-05-17T01:14:53.464Z,37.58
2023-05-17T01:15:53.272Z,37.55
2023-05-17T01:16:53.268Z,37.54
2023-05-17T01:17:53.293Z,37.52
2023-05-17T01:18:53.247Z,37.52
2023-05-17T01:19:53.229Z,37.54
2023-05-17T01:20:53.160Z,37.52
2023-05-17T01:21:53.147Z,37.55
2023-05-17T01:22:53.111Z,37.52
2023-05-17T01:23:53.089Z,37.54
2023-05-17T01:24:53.126Z,37.48
2023-05-17T01:25:53.045Z,37.48
2023-05-17T01:26:53.020Z,37.44
2023-05-17T01:27:53.003Z,37.47
2023-05-17T01:28:52.978Z,37.52
2023-05-17T01:29:52.962Z,37.48
2023-05-17T01:30:52.980Z,37.50
2023-05-17T01:31:52.914Z,37.46
2023-05-17T01:32:53.006Z,37.51
2023-05-17T01:33:52.956Z,37.47
2023-05-17T01:34:52.852Z,37.44
2023-05-17T01:35:52.820Z,37.47
2023-05-17T01:36:52.800Z,37.48
2023-05-17T01:37:52.781Z,37.44
2023-05-17T01:38:52.759Z,37.43
2023-05-17T01:39:52.730Z,37.45
2023-05-17T01:40:52.700Z,37.39
2023-05-17T01:41:52.742Z,37.43
2023-05-17T01:42:52.659Z,37.40
2023-05-17T01:43:52.641Z,37.40
2023-05-17T01:44:52.625Z,37.41
2023-05-17T01:45:52.601Z,37.43
2023-05-17T01:46:52.681Z,37.39
2023-05-17T01:47:52.629Z,37.45
2023-05-17T01:48:52.575Z,37.39
2023-05-17T01:49:52.598Z,37.36
2023-05-17T01:50:52.556Z,37.36
2023-05-17T01:51:52.496Z,37.39
2023-05-17T01:52:52.467Z,37.37
2023-05-17T01:53:52.454Z,37.39
2023-05-17T01:54:52.431Z,37.37
2023-05-17T01:55:52.465Z,37.38
2023-05-17T01:56:52.410Z,37.36
2023-05-17T01:57:52.402Z,37.37
2023-05-17T01:58:52.403Z,37.39
2023-05-17T01:59:52.380Z,37.39
2023-05-17T02:00:52.398Z,37.37
2023-05-17T02:01:52.351Z,37.37
2023-05-17T02:02:52.455Z,37.37
2023-05-17T02:03:52.369Z,37.37
2023-05-17T02:04:52.316Z,37.43
2023-05-17T02:05:52.304Z,37.39
2023-05-17T02:06:52.281Z,37.39
2023-05-17T02:07:52.272Z,37.40
2023-05-17T02:08:52.255Z,37.36
2023-05-17T02:09:52.253Z,37.33
2023-05-17T02:10:52.264Z,37.37
2023-05-17T02:11:52.208Z,37.34
2023-05-17T02:12:52.185Z,37.35
2023-05-17T02:13:52.174Z,37.35
2023-05-17T02:14:52.172Z,37.33
2023-05-17T02:15:52.189Z,37.34
2023-05-17T02:16:52.149Z,37.29
2023-05-17T02:17:52.188Z,37.30
2023-05-17T02:18:52.577Z,37.30
2023-05-17T02:19:52.105Z,37.35
2023-05-17T02:20:52.154Z,37.32
2023-05-17T02:21:52.079Z,37.32
2023-05-17T02:22:52.075Z,37.30
2023-05-17T02:23:52.048Z,37.26
2023-05-17T02:24:52.029Z,37.35
2023-05-17T02:25:52.011Z,37.30
2023-05-17T02:26:52.008Z,37.28
2023-05-17T02:27:51.988Z,37.30
2023-05-17T02:28:52.052Z,37.32
2023-05-17T02:29:51.960Z,37.28
2023-05-17T02:30:51.945Z,37.28
2023-05-17T02:31:51.944Z,37.30
2023-05-17T02:32:52.054Z,37.30
2023-05-17T02:33:51.952Z,37.25
2023-05-17T02:34:51.948Z,37.28
2023-05-17T02:35:51.891Z,37.21
2023-05-17T02:36:51.866Z,37.23
2023-05-17T02:37:51.854Z,37.32
2023-05-17T02:38:51.823Z,37.23
2023-05-17T02:39:51.817Z,37.31
2023-05-17T02:40:51.807Z,37.26
2023-05-17T02:41:51.810Z,37.25
2023-05-17T02:42:51.799Z,37.22
2023-05-17T02:43:51.751Z,37.28
2023-05-17T02:44:51.730Z,37.23
2023-05-17T02:45:51.707Z,37.22
2023-05-17T02:46:51.705Z,37.25
2023-05-17T02:47:51.724Z,37.26
2023-05-17T02:48:51.665Z,37.28
2023-05-17T02:49:51.634Z,37.21
2023-05-17T02:50:51.726Z,37.21
2023-05-17T02:51:51.619Z,37.18
2023-05-17T02:52:51.620Z,37.25
2023-05-17T02:53:51.597Z,37.16
2023-05-17T02:54:51.675Z,37.19
2023-05-17T02:55:51.571Z,37.19
2023-05-17T02:56:51.556Z,37.14
2023-05-17T02:57:51.546Z,37.14
2023-05-17T02:58:51.513Z,37.14
2023-05-17T02:59:51.518Z,37.10
2023-05-17T03:00:51.497Z,37.08
2023-05-17T03:01:51.466Z,37.20
2023-05-17T03:02:51.555Z,37.14
2023-05-17T03:03:51.608Z,37.14
2023-05-17T03:04:51.584Z,37.14
2023-05-17T03:05:51.457Z,37.10
2023-05-17T03:06:51.546Z,37.10
2023-05-17T03:07:51.481Z,37.13
2023-05-17T03:08:51.460Z,37.06
2023-05-17T03:09:51.435Z,37.07
2023-05-17T03:10:51.430Z,37.13
2023-05-17T03:11:51.449Z,37.10
2023-05-17T03:12:51.370Z,37.10
2023-05-17T03:13:51.373Z,37.11
2023-05-17T03:14:51.336Z,37.08
2023-05-17T03:15:51.368Z,37.10
2023-05-17T03:16:51.346Z,37.03
2023-05-17T03:17:51.352Z,37.07
2023-05-17T03:18:51.427Z,37.03
2023-05-17T03:19:51.404Z,37.10
2023-05-17T03:20:51.324Z,37.07
2023-05-17T03:21:51.284Z,37.10
2023-05-17T03:22:51.419Z,37.04
2023-05-17T03:23:51.227Z,37.03
2023-05-17T03:24:51.232Z,37.01
2023-05-17T03:25:51.216Z,36.97
2023-05-17T03:26:51.255Z,36.98
2023-05-17T03:27:51.188Z,36.96
2023-05-17T03:28:51.183Z,37.04
2023-05-17T03:29:51.167Z,36.97
2023-05-17T03:30:51.257Z,36.95
2023-05-17T03:31:51.135Z,36.99
2023-05-17T03:32:51.253Z,36.96
2023-05-17T03:33:51.299Z,36.95
2023-05-17T03:34:51.100Z,36.96
2023-05-17T03:35:51.101Z,36.92
2023-05-17T03:36:51.065Z,36.96
2023-05-17T03:37:51.049Z,36.92
2023-05-17T03:38:51.112Z,36.94
2023-05-17T03:39:51.016Z,36.90
2023-05-17T03:40:50.999Z,36.92
2023-05-17T03:41:50.990Z,36.92
2023-05-17T03:42:50.977Z,36.92
2023-05-17T03:43:50.966Z,36.92
2023-05-17T03:44:50.956Z,36.92
2023-05-17T03:45:50.966Z,36.93
2023-05-17T03:46:50.948Z,36.90
2023-05-17T03:47:50.950Z,36.93
2023-05-17T03:48:50.921Z,36.91
2023-05-17T03:49:50.885Z,36.90
2023-05-17T03:50:50.865Z,36.90
2023-05-17T03:51:50.885Z,36.96
2023-05-17T03:52:50.836Z,36.90
2023-05-17T03:53:50.817Z,36.90
2023-05-17T03:54:50.940Z,36.87
2023-05-17T03:55:50.784Z,36.93
2023-05-17T03:56:50.768Z,36.85
2023-05-17T03:57:50.798Z,36.85
2023-05-17T03:58:50.743Z,36.79
2023-05-17T03:59:50.719Z,36.80
2023-05-17T04:00:50.711Z,36.81
2023-05-17T04:01:50.688Z,36.84
2023-05-17T04:02:50.758Z,36.82
2023-05-17T04:03:50.675Z,36.82
2023-05-17T04:04:50.682Z,36.74
2023-05-17T04:05:50.621Z,36.81
2023-05-17T04:06:50.663Z,36.74
2023-05-17T04:07:50.642Z,36.74
2023-05-17T04:08:50.568Z,36.78
2023-05-17T04:09:50.552Z,36.74
2023-05-17T04:10:50.768Z,36.74
2023-05-17T04:11:50.515Z,36.72
2023-05-17T04:12:50.517Z,36.72
2023-05-17T04:13:50.477Z,36.72
2023-05-17T04:14:50.456Z,36.78
2023-05-17T04:15:50.444Z,36.77
2023-05-17T04:16:50.453Z,36.72
2023-05-17T04:17:50.521Z,36.71
2023-05-17T04:18:50.556Z,36.69
2023-05-17T04:19:50.485Z,36.74
2023-05-17T04:20:50.366Z,36.67
2023-05-17T04:21:50.344Z,36.69
2023-05-17T04:22:50.374Z,36.68
2023-05-17T04:23:50.307Z,36.66
2023-05-17T04:24:50.310Z,36.64
2023-05-17T04:25:50.266Z,36.69
2023-05-17T04:26:50.268Z,36.66
2023-05-17T04:27:50.233Z,36.62
2023-05-17T04:28:50.240Z,36.62
2023-05-17T04:29:50.208Z,36.62
2023-05-17T04:30:50.185Z,36.56
2023-05-17T04:31:50.176Z,36.54
2023-05-17T04:32:50.177Z,36.49
2023-05-17T04:33:50.136Z,36.50
2023-05-17T04:34:50.113Z,36.47
2023-05-17T04:35:50.103Z,36.47
2023-05-17T04:36:50.087Z,36.50
2023-05-17T04:37:50.067Z,36.49
2023-05-17T04:38:50.050Z,36.44
2023-05-17T04:39:50.053Z,36.47
2023-05-17T04:40:50.051Z,36.42
2023-05-17T04:41:49.988Z,36.46
2023-05-17T04:42:50.060Z,36.43
2023-05-17T04:43:49.945Z,36.44
2023-05-17T04:44:49.933Z,36.42
2023-05-17T04:45:49.914Z,36.40
2023-05-17T04:46:49.893Z,36.43
2023-05-17T04:47:49.992Z,36.40
2023-05-17T04:48:50.026Z,36.37
2023-05-17T04:49:49.852Z,36.35
2023-05-17T04:50:49.834Z,36.40
2023-05-17T04:51:49.808Z,36.42
2023-05-17T04:52:49.812Z,36.39
2023-05-17T04:53:49.774Z,36.40
2023-05-17T04:54:49.756Z,36.33
2023-05-17T04:55:49.722Z,36.40
2023-05-17T04:56:49.711Z,36.35
2023-05-17T04:57:49.696Z,36.35
2023-05-17T04:58:51.643Z,36.36
2023-05-17T04:59:49.662Z,36.39
2023-05-17T05:00:49.652Z,36.36
2023-05-17T05:01:49.622Z,36.36
2023-05-17T05:02:49.670Z,36.36
2023-05-17T05:03:49.626Z,36.28
2023-05-17T05:04:49.585Z,36.27
2023-05-17T05:05:49.551Z,36.27
2023-05-17T05:06:49.532Z,36.23
2023-05-17T05:07:49.509Z,36.27
2023-05-17T05:08:49.488Z,36.24
2023-05-17T05:09:49.487Z,36.25
2023-05-17T05:10:49.447Z,36.28
2023-05-17T05:11:49.428Z,36.25
2023-05-17T05:12:49.461Z,36.24
2023-05-17T05:13:49.393Z,36.24
2023-05-17T05:14:49.470Z,36.21
2023-05-17T05:15:49.352Z,36.23
2023-05-17T05:16:49.300Z,36.27
2023-05-17T05:17:49.422Z,36.19
2023-05-17T05:18:49.560Z,36.21
2023-05-17T05:19:49.366Z,36.25
2023-05-17T05:20:49.203Z,36.33
2023-05-17T05:21:49.209Z,36.29
2023-05-17T05:22:49.319Z,36.21
2023-05-17T05:23:49.131Z,36.37
2023-05-17T05:24:49.109Z,36.36
2023-05-17T05:25:49.130Z,36.43
2023-05-17T05:26:49.083Z,36.40
2023-05-17T05:27:49.049Z,36.42
2023-05-17T05:28:49.050Z,36.37
2023-05-17T05:29:49.314Z,36.41
2023-05-17T05:30:49.096Z,36.42
2023-05-17T05:31:48.944Z,36.43
2023-05-17T05:32:49.056Z,36.60
2023-05-17T05:33:49.299Z,36.45
2023-05-17T05:34:48.869Z,36.43
2023-05-17T05:35:48.852Z,36.31
2023-05-17T05:36:48.840Z,36.34
2023-05-17T05:37:48.926Z,36.31
2023-05-17T05:38:48.797Z,36.28
2023-05-17T05:39:48.761Z,36.35
2023-05-17T05:40:48.767Z,36.37
2023-05-17T05:41:48.715Z,36.36
2023-05-17T05:42:48.909Z,36.40
2023-05-17T05:43:48.787Z,36.35
2023-05-17T05:44:48.661Z,36.35
2023-05-17T05:45:48.652Z,36.32
2023-05-17T05:46:49.700Z,36.33
2023-05-17T05:47:48.884Z,36.33
2023-05-17T05:48:48.577Z,36.36
2023-05-17T05:49:48.547Z,36.38
2023-05-17T05:50:52.629Z,36.37
2023-05-17T05:51:48.512Z,36.39
2023-05-17T05:52:48.798Z,36.42
2023-05-17T05:53:48.467Z,36.40
2023-05-17T05:54:55.866Z,36.38
2023-05-17T05:55:56.233Z,36.40
2023-05-17T05:56:48.421Z,36.39
2023-05-17T05:57:48.428Z,36.97
2023-05-17T05:58:48.852Z,36.89
2023-05-17T05:59:48.344Z,36.97
2023-05-17T06:00:49.314Z,36.92
2023-05-17T06:01:48.292Z,36.96
2023-05-17T06:02:48.524Z,37.16
2023-05-17T06:03:48.349Z,37.22
2023-05-17T06:04:48.223Z,37.29
2023-05-17T06:05:51.455Z,37.34
2023-05-17T06:06:49.339Z,37.42
2023-05-17T06:07:48.344Z,37.45
2023-05-17T06:08:48.130Z,37.54
2023-05-17T06:09:48.129Z,37.57
2023-05-17T06:10:48.098Z,37.52
2023-05-17T06:11:48.075Z,37.64
2023-05-17T06:12:48.117Z,37.71
2023-05-17T06:13:48.235Z,37.79
2023-05-17T06:14:48.338Z,37.80
2023-05-17T06:15:48.273Z,37.90
2023-05-17T06:16:48.312Z,37.84
2023-05-17T06:17:48.452Z,37.88
2023-05-17T06:18:51.255Z,37.97
2023-05-17T06:19:48.384Z,37.97
2023-05-17T06:20:48.349Z,38.00
2023-05-17T06:21:48.328Z,38.00
2023-05-17T06:22:48.335Z,38.08
2023-05-17T06:23:48.284Z,38.15
2023-05-17T06:24:48.252Z,38.13
2023-05-17T06:25:48.337Z,38.14
2023-05-17T06:26:48.211Z,38.23
2023-05-17T06:27:49.196Z,38.21
2023-05-17T06:28:48.166Z,38.27
2023-05-17T06:29:51.324Z,38.32
2023-05-17T06:30:48.107Z,38.30
2023-05-17T06:31:48.076Z,38.32
2023-05-17T06:32:49.134Z,38.35
2023-05-17T06:33:48.027Z,38.45
2023-05-17T06:34:48.174Z,38.53
2023-05-17T06:36:47.938Z,38.52
2023-05-17T06:37:47.934Z,38.60
2023-05-17T06:38:48.311Z,38.65
2023-05-17T06:39:55.605Z,38.69
2023-05-17T06:40:47.830Z,38.77
2023-05-17T06:41:48.402Z,38.80
2023-05-17T06:42:47.854Z,38.81
2023-05-17T06:43:47.748Z,38.87
2023-05-17T06:44:47.712Z,38.93
2023-05-17T06:45:47.837Z,38.80
2023-05-17T06:46:47.656Z,38.79
2023-05-17T06:47:48.004Z,38.78
2023-05-17T06:48:50.857Z,38.80
2023-05-17T06:49:47.616Z,38.72
2023-05-17T06:50:47.647Z,38.63
2023-05-17T06:51:47.532Z,38.62
2023-05-17T06:52:47.504Z,38.54
2023-05-17T06:56:03.039Z,38.60
2023-05-17T06:56:50.571Z,38.64
2023-05-17T06:57:47.350Z,38.58
2023-05-17T06:59:54.653Z,38.54
2023-05-17T07:00:50.468Z,38.59
2023-05-17T07:02:03.443Z,38.58
2023-05-17T07:02:48.361Z,38.60
2023-05-17T07:03:48.304Z,38.59
2023-05-17T07:06:47.232Z,38.62
2023-05-17T07:07:47.608Z,38.61
2023-05-17T07:08:54.380Z,38.61
2023-05-17T07:09:46.926Z,38.58
2023-05-17T07:10:46.907Z,38.68
2023-05-17T07:11:46.901Z,38.65
2023-05-17T07:12:46.864Z,38.65
2023-05-17T07:13:46.979Z,38.62
2023-05-17T07:14:46.787Z,38.66
2023-05-17T07:15:46.767Z,38.67
2023-05-17T07:16:46.755Z,38.66
2023-05-17T07:17:46.815Z,38.64
2023-05-17T07:18:47.456Z,38.69
2023-05-17T07:19:46.771Z,38.61
2023-05-17T07:20:47.330Z,38.62
2023-05-17T07:21:46.593Z,38.69
2023-05-17T07:22:46.664Z,38.65
2023-05-17T07:23:46.832Z,38.65
2023-05-17T07:24:46.516Z,38.69
2023-05-17T07:25:46.520Z,38.69
2023-05-17T07:26:46.483Z,38.60
2023-05-17T07:27:46.417Z,38.66
2023-05-17T07:28:46.391Z,38.67
2023-05-17T07:29:46.847Z,38.62
2023-05-17T07:30:46.353Z,38.65
2023-05-17T07:31:46.304Z,38.60
2023-05-17T07:32:46.960Z,38.65
2023-05-17T07:33:46.417Z,38.63
2023-05-17T07:34:46.479Z,38.63
2023-05-17T07:35:46.934Z,38.64
2023-05-17T07:36:46.476Z,38.60
2023-05-17T07:37:46.522Z,38.66
2023-05-17T07:38:54.024Z,38.49
2023-05-17T07:39:50.058Z,38.80
2023-05-17T07:40:46.499Z,38.67
2023-05-17T07:41:46.552Z,38.60
2023-05-17T07:42:46.410Z,38.75
2023-05-17T07:43:47.837Z,38.69
2023-05-17T07:44:47.425Z,38.85
2023-05-17T07:45:47.431Z,38.78
2023-05-17T07:46:46.528Z,38.80
2023-05-17T07:47:46.595Z,38.83
2023-05-17T07:48:47.990Z,38.87
2023-05-17T07:49:47.646Z,38.88
2023-05-17T07:50:46.748Z,38.88
2023-05-17T07:51:46.687Z,39.33
2023-05-17T07:52:46.741Z,39.12
2023-05-17T07:55:02.381Z,38.98
2023-05-17T07:56:46.681Z,38.85
2023-05-17T07:57:46.899Z,38.84
2023-05-17T07:58:46.621Z,38.77
2023-05-17T07:59:46.575Z,38.73
2023-05-17T08:00:47.566Z,38.68
2023-05-17T08:01:47.532Z,38.74
2023-05-17T08:04:18.344Z,38.63
2023-05-17T08:04:46.449Z,38.56
2023-05-17T08:05:53.840Z,38.62
2023-05-17T08:06:46.354Z,38.65
2023-05-17T08:07:46.385Z,38.65
2023-05-17T08:08:46.273Z,38.70
2023-05-17T08:09:45.258Z,38.66
2023-05-17T08:10:46.356Z,38.65
2023-05-17T08:11:46.259Z,38.68
2023-05-17T08:12:46.426Z,38.65
2023-05-17T08:13:46.095Z,38.67
2023-05-17T08:14:46.076Z,38.71
2023-05-17T08:15:46.027Z,38.67
2023-05-17T08:16:45.994Z,38.71
2023-05-17T08:17:46.505Z,38.75
2023-05-17T08:18:46.100Z,38.72
2023-05-17T08:19:47.033Z,38.72
2023-05-17T08:20:45.864Z,38.75
2023-05-17T08:21:45.832Z,38.73
2023-05-17T08:22:45.907Z,38.71
2023-05-17T08:23:45.759Z,38.64
2023-05-17T08:24:46.728Z,38.72
2023-05-17T08:25:45.709Z,38.69
2023-05-17T08:26:45.702Z,38.66
2023-05-17T08:27:45.884Z,38.65
2023-05-17T08:28:45.634Z,38.63
2023-05-17T08:29:45.663Z,38.69
2023-05-17T08:30:45.672Z,38.67
2023-05-17T08:31:45.670Z,38.65
2023-05-17T08:32:46.000Z,38.66
2023-05-17T08:33:45.891Z,38.66
2023-05-17T08:34:45.632Z,38.66
2023-05-17T08:35:48.882Z,38.62
2023-05-17T08:36:45.947Z,38.62
2023-05-17T08:37:45.549Z,38.61
2023-05-17T08:38:45.547Z,38.60
2023-05-17T08:39:45.562Z,38.65
2023-05-17T08:40:45.449Z,38.59
2023-05-17T08:41:46.178Z,38.55
2023-05-17T08:42:46.543Z,38.59
2023-05-17T08:43:46.860Z,38.56
2023-05-17T08:44:45.388Z,38.56
2023-05-17T08:45:45.880Z,38.60
2023-05-17T08:46:45.367Z,38.56
2023-05-17T08:47:45.933Z,38.55
2023-05-17T08:48:45.459Z,38.55
2023-05-17T08:49:46.998Z,38.55
2023-05-17T08:50:45.408Z,38.55
2023-05-17T08:51:48.502Z,38.56
2023-05-17T08:52:45.395Z,38.57
2023-05-17T08:53:45.253Z,38.54
2023-05-17T08:54:45.468Z,38.53
2023-05-17T08:55:45.191Z,38.52
2023-05-17T08:56:45.171Z,38.56
2023-05-17T08:57:45.363Z,38.53
2023-05-17T08:58:56.632Z,38.53
2023-05-17T08:59:45.091Z,38.50
2023-05-17T09:00:45.218Z,38.50
2023-05-17T09:01:45.067Z,38.47
2023-05-17T09:02:45.132Z,38.49
2023-05-17T09:03:45.214Z,38.50
2023-05-17T09:04:45.109Z,38.46
2023-05-17T09:05:44.951Z,38.47
2023-05-17T09:06:44.939Z,38.46
2023-05-17T09:07:44.880Z,38.42
2023-05-17T09:08:44.870Z,38.40
2023-05-17T09:09:44.866Z,38.43
2023-05-17T09:10:44.810Z,38.44
2023-05-17T09:11:44.777Z,38.46
2023-05-17T09:12:44.739Z,38.42
2023-05-17T09:13:44.726Z,38.38
2023-05-17T09:14:44.728Z,38.38
2023-05-17T09:15:44.654Z,38.40
2023-05-17T09:16:44.628Z,38.34
2023-05-17T09:17:44.918Z,38.35
2023-05-17T09:18:45.051Z,38.38
2023-05-17T09:19:44.819Z,38.35
2023-05-17T09:20:44.571Z,38.32
2023-05-17T09:21:44.509Z,38.33
2023-05-17T09:22:44.506Z,38.33
2023-05-17T09:23:51.449Z,38.32
2023-05-17T09:24:44.444Z,38.34
2023-05-17T09:25:44.458Z,38.34
2023-05-17T09:26:44.663Z,38.34
2023-05-17T09:27:44.417Z,38.31
2023-05-17T09:28:44.398Z,38.48
2023-05-17T09:29:44.414Z,38.85
2023-05-17T09:30:44.392Z,35.83
2023-05-17T09:31:44.337Z,33.61
2023-05-17T09:32:58.936Z,33.84
2023-05-17T09:33:44.336Z,32.39
2023-05-17T09:34:44.400Z,33.04
2023-05-17T09:35:44.320Z,33.44
2023-05-17T09:36:44.394Z,34.05
2023-05-17T09:37:44.394Z,33.41
2023-05-17T09:38:44.379Z,33.65
2023-05-17T09:39:44.300Z,33.73
2023-05-17T09:40:44.342Z,34.59
2023-05-17T09:41:44.475Z,34.75
2023-05-17T09:42:44.411Z,35.10
2023-05-17T09:43:44.387Z,35.19
2023-05-17T09:44:44.322Z,35.02
2023-05-17T09:45:44.361Z,35.09
2023-05-17T09:46:44.406Z,35.06
2023-05-17T09:47:44.938Z,36.27
2023-05-17T09:48:44.522Z,36.14
2023-05-17T09:49:44.902Z,36.54
2023-05-17T09:50:44.522Z,36.16
2023-05-17T09:51:44.545Z,36.31
2023-05-17T09:52:44.561Z,36.47
2023-05-17T09:53:44.994Z,36.72
2023-05-17T09:54:44.671Z,36.81
2023-05-17T09:55:44.706Z,36.94
2023-05-17T09:56:44.717Z,36.99
2023-05-17T09:57:44.712Z,37.05
2023-05-17T09:58:44.889Z,37.04
2023-05-17T09:59:44.694Z,37.04
2023-05-17T10:00:44.746Z,37.08
2023-05-17T10:01:44.813Z,37.07
2023-05-17T10:02:44.923Z,37.16
2023-05-17T10:03:44.975Z,37.21
2023-05-17T10:04:44.933Z,37.23
2023-05-17T10:05:44.885Z,37.25
2023-05-17T10:06:48.093Z,37.30
2023-05-17T10:07:44.881Z,37.30
2023-05-17T10:08:44.842Z,37.36
2023-05-17T10:09:44.835Z,37.29
2023-05-17T10:10:44.808Z,37.35
2023-05-17T10:11:44.778Z,37.34
2023-05-17T10:12:44.754Z,37.37
2023-05-17T10:13:44.735Z,37.45
2023-05-17T10:14:44.933Z,37.47
2023-05-17T10:15:47.388Z,37.56
2023-05-17T10:16:44.653Z,37.64
2023-05-17T10:17:45.735Z,37.72
2023-05-17T10:18:45.017Z,37.78
2023-05-17T10:19:44.767Z,37.84
2023-05-17T10:20:44.551Z,37.92
2023-05-17T10:21:44.516Z,37.94
2023-05-17T10:22:44.519Z,38.00
2023-05-17T10:23:44.914Z,38.05
2023-05-17T10:24:44.902Z,38.17
2023-05-17T10:25:44.421Z,38.26
2023-05-17T10:26:44.434Z,38.36
2023-05-17T10:27:44.436Z,38.78
2023-05-17T10:28:45.398Z,38.44
2023-05-17T10:29:45.980Z,38.90
2023-05-17T10:30:44.423Z,38.50
2023-05-17T10:31:44.397Z,38.47
2023-05-17T10:32:44.519Z,38.51
2023-05-17T10:33:44.407Z,38.48
2023-05-17T10:34:45.809Z,38.53
2023-05-17T10:35:44.278Z,38.55
2023-05-17T10:36:44.345Z,38.58
2023-05-17T10:37:44.206Z,38.54
2023-05-17T10:38:44.419Z,38.55
2023-05-17T10:39:44.144Z,38.58
2023-05-17T10:40:44.117Z,38.67
2023-05-17T10:41:44.080Z,38.67
2023-05-17T10:42:44.049Z,38.75
2023-05-17T10:43:44.026Z,38.69
2023-05-17T10:44:43.995Z,38.75
2023-05-17T10:45:43.959Z,38.84
2023-05-17T10:46:43.912Z,38.87
2023-05-17T10:47:43.926Z,38.92
2023-05-17T10:48:43.961Z,38.88
2023-05-17T10:49:43.820Z,38.93
2023-05-17T10:50:54.404Z,38.93
2023-05-17T10:51:43.757Z,38.95
2023-05-17T10:52:43.719Z,39.03
2023-05-17T10:53:43.904Z,39.04
2023-05-17T10:54:43.664Z,39.05
2023-05-17T10:55:43.910Z,39.06
2023-05-17T10:56:43.571Z,39.16
2023-05-17T10:57:51.037Z,39.20
2023-05-17T10:58:43.658Z,39.24
2023-05-17T10:59:43.485Z,39.25
2023-05-17T11:00:43.450Z,39.33
2023-05-17T11:01:43.411Z,39.33
2023-05-17T11:02:44.445Z,39.40
2023-05-17T11:03:43.350Z,39.40
2023-05-17T11:04:43.434Z,39.40
2023-05-17T11:05:43.438Z,39.45
2023-05-17T11:06:43.307Z,39.49
2023-05-17T11:07:43.202Z,39.50
2023-05-17T11:08:43.409Z,39.57
2023-05-17T11:09:43.136Z,39.63
2023-05-17T11:10:43.105Z,39.71
2023-05-17T11:11:43.077Z,39.97
2023-05-17T11:12:43.063Z,39.88
2023-05-17T11:13:43.411Z,39.83
2023-05-17T11:14:42.972Z,39.79
2023-05-17T11:15:42.932Z,39.77
2023-05-17T11:16:42.898Z,39.73
2023-05-17T11:17:42.944Z,39.69
2023-05-17T11:18:43.527Z,39.69
2023-05-17T11:19:43.048Z,39.69
2023-05-17T11:20:42.933Z,39.66
2023-05-17T11:21:42.815Z,39.65
2023-05-17T11:22:43.452Z,39.58
2023-05-17T11:23:42.812Z,39.49
2023-05-17T11:24:42.803Z,39.46
2023-05-17T11:25:42.807Z,39.29
2023-05-17T11:26:42.815Z,39.21
2023-05-17T11:27:42.822Z,39.28
2023-05-17T11:28:42.847Z,39.27
2023-05-17T11:29:42.850Z,39.24
2023-05-17T11:30:42.874Z,39.17
2023-05-17T11:31:42.873Z,39.09
2023-05-17T11:32:42.941Z,39.02
2023-05-17T11:33:43.006Z,39.02
2023-05-17T11:34:42.942Z,38.90
2023-05-17T11:35:42.943Z,38.92
2023-05-17T11:36:42.955Z,38.87
2023-05-17T11:37:42.967Z,38.72
2023-05-17T11:38:43.012Z,38.72
2023-05-17T11:39:42.993Z,39.03
2023-05-17T11:40:43.033Z,38.94
2023-05-17T11:41:43.029Z,38.95
2023-05-17T11:42:43.054Z,38.97
2023-05-17T11:43:43.077Z,38.99
2023-05-17T11:44:46.297Z,38.98
2023-05-17T11:45:43.052Z,39.02
2023-05-17T11:46:43.021Z,39.02
2023-05-17T11:47:43.113Z,39.17
2023-05-17T11:48:43.099Z,39.13
2023-05-17T11:49:42.932Z,39.23
2023-05-17T11:50:42.893Z,39.20
2023-05-17T11:51:42.885Z,39.22
2023-05-17T11:52:42.811Z,39.22
2023-05-17T11:53:42.775Z,39.86
2023-05-17T11:54:42.781Z,39.52
2023-05-17T11:55:42.709Z,39.41
2023-05-17T11:56:43.793Z,39.36
2023-05-17T11:57:42.642Z,39.54
2023-05-17T11:58:42.932Z,39.46
2023-05-17T11:59:42.592Z,39.49
2023-05-17T12:00:42.549Z,39.51
2023-05-17T12:01:42.511Z,39.52
2023-05-17T12:02:42.532Z,39.56
2023-05-17T12:03:42.497Z,39.58
2023-05-17T12:04:42.559Z,39.61
2023-05-17T12:05:45.550Z,39.60
2023-05-17T12:06:42.702Z,39.62
2023-05-17T12:07:42.455Z,39.72
2023-05-17T12:08:42.466Z,39.76
2023-05-17T12:09:42.427Z,40.24
2023-05-17T12:10:42.369Z,40.09
2023-05-17T12:11:42.306Z,40.15
2023-05-17T12:12:42.270Z,40.26
2023-05-17T12:13:42.259Z,40.49
2023-05-17T12:14:42.198Z,40.56
2023-05-17T12:15:42.164Z,40.66
2023-05-17T12:16:42.440Z,40.82
2023-05-17T12:17:42.198Z,40.82
2023-05-17T12:18:42.320Z,40.75
2023-05-17T12:19:42.285Z,40.88
2023-05-17T12:20:42.004Z,40.87
2023-05-17T12:21:41.951Z,40.97
2023-05-17T12:22:41.921Z,40.94
2023-05-17T12:23:41.947Z,41.00
2023-05-17T12:24:41.916Z,40.94
2023-05-17T12:25:41.836Z,40.97
2023-05-17T12:26:41.837Z,41.11
2023-05-17T12:27:41.758Z,41.09
2023-05-17T12:28:41.728Z,41.10
2023-05-17T12:29:41.695Z,41.19
2023-05-17T12:30:41.661Z,41.27
2023-05-17T12:31:41.627Z,41.42
2023-05-17T12:32:41.647Z,41.46
2023-05-17T12:33:41.691Z,41.53
2023-05-17T12:34:41.957Z,41.58
2023-05-17T12:35:41.510Z,41.47
2023-05-17T12:36:41.450Z,41.54
2023-05-17T12:37:41.408Z,41.55
2023-05-17T12:38:42.366Z,41.64
2023-05-17T12:39:41.327Z,41.60
2023-05-17T12:40:43.336Z,41.70
2023-05-17T12:41:41.248Z,41.77
2023-05-17T12:42:41.680Z,41.80
2023-05-17T12:43:41.509Z,41.71
2023-05-17T12:44:41.139Z,41.82
2023-05-17T12:45:41.697Z,41.89
2023-05-17T12:46:41.913Z,41.97
2023-05-17T12:47:41.374Z,41.97
2023-05-17T12:48:41.158Z,41.92
2023-05-17T12:49:40.957Z,42.00
2023-05-17T12:50:40.931Z,42.02
2023-05-17T12:51:40.883Z,42.13
2023-05-17T12:52:40.854Z,42.10
2023-05-17T12:53:41.767Z,42.20
2023-05-17T12:54:40.751Z,42.24
2023-05-17T12:55:41.005Z,42.33
2023-05-17T12:56:40.660Z,42.34
2023-05-17T12:57:40.622Z,42.79
2023-05-17T12:58:40.596Z,42.94
2023-05-17T12:59:40.552Z,42.96
2023-05-17T13:00:40.503Z,43.53
2023-05-17T13:01:40.479Z,43.51